Time;durP1;ratioP1;P1;durP2;ratioP2;P2;SDS_P1;SDS_P2;PMS_P1;PMS_P2;Temp;Humidity;BMP_temperature;BMP_pressure;BME280_temperature;BME280_humidity;BME280_pressure;Samples;Min_cycle;Max_cycle;Signal;HPM_P1;HPM_P2
2021/03/19 00:02:18;;;;;;;13.05;4.03;;;;;;;4.20;85.32;100483.09;5016284;28;20053;-71
2021/03/19 00:04:45;;;;;;;9.70;3.50;;;;;;;4.25;84.94;100480.31;5015425;28;20071;-73
2021/03/19 00:07:11;;;;;;;10.07;3.72;;;;;;;4.35;85.03;100486.19;5016042;28;20042;-73
2021/03/19 00:09:37;;;;;;;15.85;4.50;;;;;;;4.31;85.13;100489.84;5016561;28;20060;-72
2021/03/19 00:12:04;;;;;;;12.10;4.30;;;;;;;4.15;85.05;100477.06;5016181;28;20056;-71
2021/03/19 00:14:30;;;;;;;9.82;4.38;;;;;;;4.28;85.51;100490.81;5016015;28;20352;-72
2021/03/19 00:16:56;;;;;;;11.02;4.93;;;;;;;4.35;84.77;100496.75;5015910;28;20054;-72
2021/03/19 00:19:27;;;;;;;12.82;4.72;;;;;;;4.33;85.05;100498.59;5015941;28;20064;-72
2021/03/19 00:21:53;;;;;;;17.02;5.22;;;;;;;4.34;85.04;100497.69;5015855;28;20054;-72
2021/03/19 00:24:19;;;;;;;12.35;5.65;;;;;;;4.25;85.36;100492.69;5015985;28;20049;-72
2021/03/19 00:26:47;;;;;;;8.70;4.80;;;;;;;4.27;85.36;100497.00;5014552;28;20124;-72
2021/03/19 00:29:13;;;;;;;11.50;5.88;;;;;;;4.29;85.88;100507.50;5015721;28;20046;-71
2021/03/19 00:31:39;;;;;;;12.02;6.45;;;;;;;4.31;86.20;100511.84;5014805;28;20058;-73
2021/03/19 00:34:06;;;;;;;14.23;7.70;;;;;;;4.24;87.93;100518.22;5015797;28;20134;-71
2021/03/19 00:36:33;;;;;;;10.98;7.20;;;;;;;4.12;85.37;100519.44;5014643;28;20080;-72
2021/03/19 00:38:59;;;;;;;9.52;6.82;;;;;;;4.01;84.43;100519.75;5015650;28;20442;-72
2021/03/19 00:41:28;;;;;;;11.38;7.45;;;;;;;3.90;85.13;100522.69;5015359;28;20124;-72
2021/03/19 00:43:55;;;;;;;10.75;7.95;;;;;;;3.76;86.53;100524.84;5015528;28;20058;-70
2021/03/19 00:46:21;;;;;;;13.20;8.00;;;;;;;3.72;87.75;100523.19;5015411;28;20065;-72
2021/03/19 00:48:47;;;;;;;9.52;7.88;;;;;;;3.65;88.90;100523.34;5015730;28;20054;-72
2021/03/19 00:51:14;;;;;;;13.07;8.65;;;;;;;3.61;89.13;100524.34;5015759;28;20069;-73
2021/03/19 00:53:40;;;;;;;13.20;9.65;;;;;;;3.57;89.39;100524.44;5014605;28;20058;-71
2021/03/19 00:56:07;;;;;;;12.77;9.88;;;;;;;3.59;90.11;100533.22;5015194;28;20050;-73
2021/03/19 00:58:33;;;;;;;13.55;9.70;;;;;;;3.51;90.83;100529.00;5015311;28;20056;-74
2021/03/19 01:00:59;;;;;;;13.45;10.70;;;;;;;3.50;90.62;100531.66;4994485;28;20047;-71
2021/03/19 01:03:25;;;;;;;14.75;11.50;;;;;;;3.42;89.79;100526.56;5027113;28;20471;-72
2021/03/19 01:05:53;;;;;;;17.48;12.05;;;;;;;3.49;90.13;100532.59;4995562;28;20057;-73
2021/03/19 01:08:19;;;;;;;18.63;14.18;;;;;;;3.50;91.12;100529.03;4995456;28;20057;-72
2021/03/19 01:10:50;;;;;;;18.80;12.90;;;;;;;3.52;89.74;100532.47;4995528;28;20436;-71
2021/03/19 01:13:16;;;;;;;20.83;14.03;;;;;;;3.53;90.01;100542.13;4994627;28;20054;-71
2021/03/19 01:15:43;;;;;;;19.73;14.68;;;;;;;3.53;90.23;100545.66;4994498;28;20134;-73
2021/03/19 01:18:18;;;;;;;18.08;15.15;;;;;;;3.52;90.16;100540.41;5026815;28;20069;-73
2021/03/19 01:20:46;;;;;;;23.90;15.55;;;;;;;3.49;90.51;100540.50;4995595;28;20160;-73
2021/03/19 01:23:13;;;;;;;23.00;15.63;;;;;;;3.57;90.60;100550.84;4997622;28;20054;-73
2021/03/19 01:25:40;;;;;;;20.67;16.40;;;;;;;3.51;88.81;100543.97;4999198;28;20355;-71
2021/03/19 01:28:06;;;;;;;23.63;16.10;;;;;;;3.47;88.84;100542.28;4998063;28;20046;-72
2021/03/19 01:30:35;;;;;;;21.25;14.85;;;;;;;3.46;88.50;100546.72;4994430;28;20077;-73
2021/03/19 01:33:02;;;;;;;25.10;14.70;;;;;;;3.44;88.68;100545.91;4997859;28;20046;-73
2021/03/19 01:35:31;;;;;;;21.08;14.75;;;;;;;3.49;89.18;100548.41;4995472;28;20050;-72
2021/03/19 01:37:59;;;;;;;17.67;13.82;;;;;;;3.47;88.78;100535.25;4994726;28;20051;-73
2021/03/19 01:40:30;;;;;;;17.10;14.05;;;;;;;3.52;88.14;100550.97;4995554;28;20054;-72
2021/03/19 01:43:21;;;;;;;22.45;14.30;;;;;;;3.54;87.95;100541.22;4995015;28;20058;-73
2021/03/19 01:46:24;;;;;;;20.02;14.23;;;;;;;3.54;87.87;100546.50;4995220;28;20051;-73
2021/03/19 01:49:29;;;;;;;21.67;15.30;;;;;;;3.56;87.94;100552.63;4994134;28;20105;-72
2021/03/19 01:52:33;;;;;;;19.38;12.98;;;;;;;3.45;85.60;100544.09;4995188;28;20043;-73
2021/03/19 01:55:37;;;;;;;18.35;14.25;;;;;;;3.38;86.54;100552.19;4995142;28;20546;-72
2021/03/19 01:58:40;;;;;;;22.90;13.35;;;;;;;3.33;86.32;100550.56;4995316;28;20065;-72
2021/03/19 02:01:44;;;;;;;21.33;14.18;;;;;;;3.32;86.09;100552.31;4996465;28;20051;-71
2021/03/19 02:04:48;;;;;;;19.45;13.52;;;;;;;3.29;85.95;100562.97;4997786;28;20436;-72
2021/03/19 02:07:52;;;;;;;20.50;13.65;;;;;;;3.33;86.32;100561.97;4999017;28;20077;-72
2021/03/19 02:10:56;;;;;;;17.98;14.15;;;;;;;3.30;85.79;100562.06;4998857;28;20050;-71
2021/03/19 02:13:59;;;;;;;20.40;14.88;;;;;;;3.28;85.85;100560.34;4997823;28;20043;-71
2021/03/19 02:17:03;;;;;;;19.10;14.75;;;;;;;3.33;86.27;100561.13;4997658;28;20062;-70
2021/03/19 02:20:07;;;;;;;21.70;15.05;;;;;;;3.23;84.65;100555.19;4997446;28;20050;-72
2021/03/19 02:23:10;;;;;;;20.33;15.77;;;;;;;3.16;86.33;100567.66;4998523;28;20444;-71
2021/03/19 02:26:14;;;;;;;27.50;17.35;;;;;;;3.11;86.23;100573.03;4998680;28;20051;-73
2021/03/19 02:29:18;;;;;;;23.08;16.10;;;;;;;3.11;85.72;100577.47;4998403;28;20050;-73
2021/03/19 02:31:55;;;;;;;22.65;16.33;;;;;;;3.06;85.43;100574.91;4998572;28;20050;-73
2021/03/19 02:34:29;;;;;;;23.98;15.80;;;;;;;3.09;85.20;100587.16;4998361;28;20120;-73
2021/03/19 02:36:56;;;;;;;23.90;15.82;;;;;;;3.05;84.48;100578.44;4998437;28;20153;-73
2021/03/19 02:39:23;;;;;;;21.73;15.55;;;;;;;2.96;84.61;100586.59;4998291;28;20058;-72
2021/03/19 02:41:50;;;;;;;26.27;16.20;;;;;;;2.89;84.71;100582.34;4998010;28;20443;-71
2021/03/19 02:44:16;;;;;;;23.17;15.70;;;;;;;2.86;85.50;100585.94;4997976;28;20414;-73
2021/03/19 02:46:43;;;;;;;20.95;15.80;;;;;;;2.87;85.99;100594.72;4998056;28;20057;-72
2021/03/19 02:49:09;;;;;;;21.98;15.82;;;;;;;2.83;84.82;100586.84;4997889;28;20108;-71
2021/03/19 02:51:36;;;;;;;18.85;15.25;;;;;;;2.81;85.10;100593.94;4997103;28;20132;-73
2021/03/19 02:54:02;;;;;;;23.60;15.80;;;;;;;2.70;85.41;100595.94;5013202;28;20050;-74
2021/03/19 02:56:28;;;;;;;23.38;15.68;;;;;;;2.71;86.04;100603.81;4997929;28;20054;-71
2021/03/19 02:58:55;;;;;;;27.35;16.50;;;;;;;2.66;85.71;100604.81;5000412;28;20054;-71
2021/03/19 03:01:21;;;;;;;19.60;14.93;;;;;;;2.62;85.26;100603.13;5017680;28;20144;-72
2021/03/19 03:03:47;;;;;;;22.38;16.17;;;;;;;2.57;86.23;100606.72;5016520;28;20049;-73
2021/03/19 03:06:14;;;;;;;23.55;16.13;;;;;;;2.44;85.52;100590.31;5016377;28;20112;-73
2021/03/19 03:08:40;;;;;;;23.10;15.07;;;;;;;2.50;85.42;100607.75;5016100;28;20447;-72
2021/03/19 03:11:06;;;;;;;30.00;16.27;;;;;;;2.42;85.32;100607.94;5017583;28;20049;-74
2021/03/19 03:13:32;;;;;;;19.88;14.13;;;;;;;2.37;84.67;100614.16;5015961;28;20061;-73
2021/03/19 03:16:01;;;;;;;23.88;15.65;;;;;;;2.38;85.09;100605.34;5017332;28;20050;-74
2021/03/19 03:18:27;;;;;;;21.20;14.82;;;;;;;2.29;85.56;100607.28;5016143;28;20052;-74
2021/03/19 03:20:57;;;;;;;21.35;14.77;;;;;;;2.30;85.03;100619.53;5017068;28;20058;-73
2021/03/19 03:23:25;;;;;;;23.17;15.30;;;;;;;2.28;85.39;100625.72;4999735;28;20057;-72
2021/03/19 03:25:52;;;;;;;23.85;16.40;;;;;;;2.20;85.01;100619.75;5017143;28;20145;-72
2021/03/19 03:28:22;;;;;;;23.58;16.88;;;;;;;2.17;84.94;100633.84;5017066;28;20053;-72
2021/03/19 03:30:54;;;;;;;25.02;16.02;;;;;;;2.14;85.42;100628.66;5016107;28;20054;-72
2021/03/19 03:33:21;;;;;;;24.05;16.88;;;;;;;2.14;85.36;100633.91;5016837;28;20432;-72
2021/03/19 03:35:47;;;;;;;21.83;15.40;;;;;;;2.11;85.49;100632.19;5015782;28;20108;-73
2021/03/19 03:38:18;;;;;;;20.33;16.58;;;;;;;2.14;85.39;100631.28;5015695;28;20053;-72
2021/03/19 03:40:55;;;;;;;21.48;15.55;;;;;;;2.13;84.96;100637.44;5015746;28;20378;-73
2021/03/19 03:43:22;;;;;;;22.83;16.23;;;;;;;2.08;85.26;100639.28;5016616;28;20069;-75
2021/03/19 03:45:49;;;;;;;19.38;15.32;;;;;;;2.04;84.59;100633.22;5016748;28;20058;-71
2021/03/19 03:48:21;;;;;;;22.65;16.52;;;;;;;1.95;84.37;100649.19;5015891;28;20371;-71
2021/03/19 03:50:48;;;;;;;;;;;;;;;1.96;84.57;100657.03;5018993;28;20132;-72
2021/03/19 03:53:14;;;;;;;21.52;16.10;;;;;;;1.99;85.36;100664.00;5018168;28;19925;-72
2021/03/19 03:55:41;;;;;;;23.77;16.67;;;;;;;1.96;84.83;100657.03;5016982;28;20053;-71
2021/03/19 03:58:11;;;;;;;26.67;17.83;;;;;;;1.85;86.15;100648.47;5015674;28;20068;-71
2021/03/19 04:00:39;;;;;;;28.57;18.00;;;;;;;1.89;85.23;100653.66;5016415;28;20069;-73
2021/03/19 04:03:06;;;;;;;26.75;18.67;;;;;;;1.92;85.40;100665.91;5016623;28;20054;-74
2021/03/19 04:05:39;;;;;;;26.95;18.00;;;;;;;1.87;85.85;100663.31;5015123;28;20054;-72
2021/03/19 04:08:07;;;;;;;25.48;18.02;;;;;;;1.83;86.90;100673.94;5016421;28;20053;-73
2021/03/19 04:10:34;;;;;;;26.23;17.20;;;;;;;1.86;87.41;100671.25;5016126;28;20054;-72
2021/03/19 04:13:01;;;;;;;26.65;18.98;;;;;;;1.80;88.38;100674.84;5016187;28;20054;-71
2021/03/19 04:15:27;;;;;;;24.15;18.17;;;;;;;1.83;88.62;100676.56;5031375;28;20060;-73
2021/03/19 04:17:59;;;;;;;22.80;17.90;;;;;;;1.81;89.25;100654.66;5016121;28;20053;-73
2021/03/19 04:20:26;;;;;;;23.42;17.58;;;;;;;1.86;88.78;100671.25;5015111;28;20054;-73
2021/03/19 04:22:55;;;;;;;24.73;17.55;;;;;;;1.87;88.82;100673.00;5016269;28;20054;-73
2021/03/19 04:25:22;;;;;;;23.38;17.38;;;;;;;1.79;89.31;100678.38;5015610;28;20402;-73
2021/03/19 04:28:00;;;;;;;23.77;17.60;;;;;;;1.64;89.77;100679.50;5014820;28;20088;-72
2021/03/19 04:30:29;;;;;;;27.08;17.48;;;;;;;1.57;89.95;100680.50;5016051;28;20099;-72
2021/03/19 04:32:57;;;;;;;24.55;17.30;;;;;;;1.60;90.18;100699.75;5015798;28;20410;-73
2021/03/19 04:35:25;;;;;;;24.80;17.38;;;;;;;1.58;90.33;100698.88;5015963;28;20064;-72
2021/03/19 04:37:56;;;;;;;24.08;17.88;;;;;;;1.66;90.74;100706.66;5015979;28;20073;-72
2021/03/19 04:40:22;;;;;;;28.00;19.52;;;;;;;1.66;89.85;100709.28;5016124;28;20076;-74
2021/03/19 04:42:49;;;;;;;28.05;16.77;;;;;;;1.73;89.59;100708.31;5015701;28;20062;-72
2021/03/19 04:45:16;;;;;;;24.75;16.30;;;;;;;1.81;89.55;100715.22;5015604;28;20382;-71
2021/03/19 04:47:42;;;;;;;20.83;15.55;;;;;;;1.68;89.69;100702.22;5015832;28;20112;-72
2021/03/19 04:50:11;;;;;;;24.67;16.88;;;;;;;1.84;89.79;100715.13;5015686;28;20120;-73
2021/03/19 04:52:38;;;;;;;25.00;15.80;;;;;;;1.86;89.35;100713.38;5015658;28;20120;-74
2021/03/19 04:55:06;;;;;;;20.48;15.73;;;;;;;1.86;89.41;100713.38;5015435;28;20077;-73
2021/03/19 04:57:32;;;;;;;23.25;15.63;;;;;;;1.93;89.23;100715.00;5015408;28;20046;-73
2021/03/19 04:59:59;;;;;;;24.13;16.00;;;;;;;1.92;88.77;100723.81;5015556;28;20073;-72
2021/03/19 05:02:43;;;;;;;22.75;15.98;;;;;;;1.86;87.91;100724.75;4998118;28;20053;-74
2021/03/19 05:05:22;;;;;;;21.25;15.55;;;;;;;1.78;87.94;100725.78;5015408;28;20046;-72
2021/03/19 05:07:49;;;;;;;25.23;17.02;;;;;;;1.70;88.59;100726.75;5015280;28;20072;-72
2021/03/19 05:10:18;;;;;;;25.08;16.33;;;;;;;1.69;88.27;100726.78;5015402;28;20081;-74
2021/03/19 05:12:45;;;;;;;24.00;16.83;;;;;;;1.76;88.79;100744.22;5015256;28;20062;-73
2021/03/19 05:15:12;;;;;;;28.48;17.02;;;;;;;1.82;88.70;100738.88;5015252;28;20058;-72
2021/03/19 05:17:39;;;;;;;21.92;15.73;;;;;;;1.84;88.11;100749.38;5015240;28;20101;-73
2021/03/19 05:20:09;;;;;;;22.50;16.83;;;;;;;1.75;87.65;100766.19;5015023;28;20123;-71
2021/03/19 05:22:35;;;;;;;27.08;17.85;;;;;;;1.81;88.10;100765.22;5015011;28;20116;-73
2021/03/19 05:25:05;;;;;;;27.88;17.50;;;;;;;1.83;87.40;100771.31;5015009;28;20352;-74
2021/03/19 05:27:31;;;;;;;24.25;17.35;;;;;;;1.85;87.49;100778.31;5014390;28;20045;-73
2021/03/19 05:29:57;;;;;;;28.02;18.48;;;;;;;1.88;87.70;100764.22;5015266;28;20104;-71
2021/03/19 05:32:25;;;;;;;27.77;18.55;;;;;;;1.88;86.68;100782.66;5015441;28;20058;-73
2021/03/19 05:34:52;;;;;;;23.90;18.23;;;;;;;1.77;86.78;100774.91;5015326;28;20134;-72
2021/03/19 05:37:20;;;;;;;30.38;19.20;;;;;;;1.86;86.87;100781.81;5017112;28;20077;-72
2021/03/19 05:39:46;;;;;;;26.77;19.08;;;;;;;1.73;86.83;100789.88;5019478;28;20065;-72
2021/03/19 05:42:26;;;;;;;27.70;20.15;;;;;;;1.70;87.28;100786.44;5019396;28;20062;-73
2021/03/19 05:45:00;;;;;;;28.65;20.00;;;;;;;1.58;87.18;100784.84;5019427;28;20054;-70
2021/03/19 05:47:27;;;;;;;31.00;19.60;;;;;;;1.52;86.91;100774.41;5018414;28;20050;-71
2021/03/19 05:49:58;;;;;;;28.25;20.23;;;;;;;1.37;87.38;100776.34;5018510;28;20127;-74
2021/03/19 05:52:28;;;;;;;34.38;20.85;;;;;;;1.32;87.15;100780.78;5019232;28;20061;-72
2021/03/19 05:54:55;;;;;;;32.88;20.85;;;;;;;1.37;87.64;100789.50;5018094;28;20139;-72
2021/03/19 05:57:33;;;;;;;32.65;22.42;;;;;;;1.31;87.88;100792.22;5019013;28;20119;-73
2021/03/19 06:00:02;;;;;;;35.47;21.05;;;;;;;1.31;87.69;100794.84;5018885;28;20045;-74
2021/03/19 06:02:32;;;;;;;30.17;21.40;;;;;;;1.33;87.74;100798.31;5017694;28;20058;-72
2021/03/19 06:05:03;;;;;;;32.70;20.77;;;;;;;1.26;88.26;100802.78;5018571;28;20050;-71
2021/03/19 06:08:06;;;;;;;28.50;19.77;;;;;;;1.26;88.29;100809.78;5018750;28;20053;-71
2021/03/19 06:10:38;;;;;;;32.20;20.90;;;;;;;1.30;87.75;100804.47;5018625;28;20049;-73
2021/03/19 06:13:12;;;;;;;39.10;19.67;;;;;;;1.30;87.57;100815.00;5023368;28;20054;-74
2021/03/19 06:15:42;;;;;;;31.95;20.00;;;;;;;1.33;87.61;100819.34;5024782;28;20064;-72
2021/03/19 06:18:30;;;;;;;27.23;18.58;;;;;;;1.20;87.90;100829.16;5030551;28;20081;-72
2021/03/19 06:21:05;;;;;;;30.63;19.35;;;;;;;1.20;87.93;100829.16;5028156;28;20054;-74
2021/03/19 06:23:34;;;;;;;30.42;20.52;;;;;;;1.24;87.89;100846.63;5018900;28;20081;-75
2021/03/19 06:26:21;;;;;;;32.75;20.50;;;;;;;1.11;88.29;100830.13;5050553;28;20435;-76
2021/03/19 06:29:05;;;;;;;33.78;20.48;;;;;;;1.27;87.98;100843.97;5018824;28;20050;-73
2021/03/19 06:31:32;;;;;;;34.90;22.02;;;;;;;1.14;87.93;100835.34;5018605;28;20057;-73
2021/03/19 06:34:07;;;;;;;32.65;22.48;;;;;;;1.24;88.05;100845.75;5018554;28;20457;-74
2021/03/19 06:36:54;;;;;;;36.05;23.05;;;;;;;1.24;88.33;100846.63;5018306;28;20065;-73
2021/03/19 06:39:26;;;;;;;32.95;21.80;;;;;;;1.32;88.35;100854.44;5018404;28;20050;-75
2021/03/19 06:42:03;;;;;;;32.78;22.67;;;;;;;1.37;88.44;100852.63;5019432;28;20603;-73
2021/03/19 06:44:37;;;;;;;30.35;20.95;;;;;;;1.45;87.46;100856.03;5019700;28;20050;-75
2021/03/19 06:47:08;;;;;;;30.27;20.40;;;;;;;1.39;87.53;100866.63;5018531;28;20133;-73
2021/03/19 06:49:55;;;;;;;31.10;19.55;;;;;;;1.48;87.88;100860.38;5019439;28;20058;-73
2021/03/19 06:52:22;;;;;;;29.30;19.58;;;;;;;1.38;88.25;100851.72;5020226;28;20137;-76
2021/03/19 06:54:55;;;;;;;31.80;19.92;;;;;;;1.34;88.74;100836.88;5017435;28;20112;-73
2021/03/19 06:57:23;;;;;;;31.48;19.77;;;;;;;1.52;87.73;100856.81;5014554;28;20046;-75
2021/03/19 06:59:53;;;;;;;29.67;20.63;;;;;;;1.52;87.80;100851.56;5009984;28;20053;-75
2021/03/19 07:02:53;;;;;;;31.65;19.42;;;;;;;1.31;88.43;100873.72;5019793;28;20141;-75
2021/03/19 07:05:41;;;;;;;29.05;17.73;;;;;;;1.38;87.87;100879.78;5018508;28;20104;-76
2021/03/19 07:08:27;;;;;;;30.92;19.05;;;;;;;1.46;88.52;100872.66;5018262;28;20054;-76
2021/03/19 07:11:26;;;;;;;30.05;17.95;;;;;;;1.51;88.25;100886.66;5016737;28;20057;-72
2021/03/19 07:14:07;;;;;;;25.73;18.02;;;;;;;1.56;88.08;100881.31;5017167;28;20410;-72
2021/03/19 07:16:45;;;;;;;26.25;16.42;;;;;;;1.58;87.81;100885.69;5017489;28;20085;-71
2021/03/19 07:19:24;;;;;;;27.92;17.55;;;;;;;1.47;87.29;100891.06;5017233;28;20054;-72
2021/03/19 07:22:28;;;;;;;26.63;17.15;;;;;;;1.52;88.37;100892.78;5016762;28;20399;-73
2021/03/19 07:24:57;;;;;;;29.27;17.00;;;;;;;1.52;87.21;100893.66;5015955;28;20439;-72
2021/03/19 07:27:35;;;;;;;29.83;18.25;;;;;;;1.54;87.64;100904.16;5015747;28;20176;-72
2021/03/19 07:30:15;;;;;;;25.88;16.52;;;;;;;1.53;87.29;100910.31;5017112;28;20131;-72
2021/03/19 07:33:00;;;;;;;26.25;17.13;;;;;;;1.55;87.80;100914.69;5016664;28;20432;-72
2021/03/19 07:35:51;;;;;;;29.83;19.00;;;;;;;1.60;87.64;100915.50;5016798;28;20796;-71
2021/03/19 07:38:38;;;;;;;27.70;17.83;;;;;;;1.71;87.14;100925.00;5016696;28;20057;-72
2021/03/19 07:41:34;;;;;;;26.17;17.80;;;;;;;1.68;86.79;100923.28;5015805;28;20084;-72
2021/03/19 07:44:13;;;;;;;24.83;18.02;;;;;;;1.75;86.47;100924.09;5016618;28;20061;-74
2021/03/19 07:46:49;;;;;;;28.20;17.73;;;;;;;1.81;86.12;100926.66;5016681;28;20058;-73
2021/03/19 07:49:46;;;;;;;26.63;17.55;;;;;;;1.89;87.06;100934.44;5015567;28;20091;-72
2021/03/19 07:52:34;;;;;;;24.42;14.85;;;;;;;2.02;85.44;100938.66;5016936;28;20053;-70
2021/03/19 07:55:29;;;;;;;31.73;15.90;;;;;;;1.95;85.76;100922.97;5016633;28;20530;-73
2021/03/19 07:58:13;;;;;;;22.00;15.32;;;;;;;2.15;85.94;100935.88;5016215;28;20054;-73
2021/03/19 08:00:47;;;;;;;26.42;14.30;;;;;;;2.09;82.98;100935.94;5015485;28;20060;-74
2021/03/19 08:03:27;;;;;;;23.25;13.60;;;;;;;2.06;82.88;100939.50;5015437;28;20351;-75
2021/03/19 08:05:54;;;;;;;21.23;12.57;;;;;;;2.00;83.10;100937.81;5016887;28;20054;-75
2021/03/19 08:08:34;;;;;;;17.60;11.38;;;;;;;2.05;81.89;100952.69;5015461;28;20057;-75
2021/03/19 08:11:28;;;;;;;16.57;11.07;;;;;;;2.14;81.92;100960.47;5015416;28;20407;-75
2021/03/19 08:14:03;;;;;;;18.95;11.00;;;;;;;2.25;81.84;100966.47;5015548;28;20042;-75
2021/03/19 08:17:08;;;;;;;18.58;10.85;;;;;;;2.33;81.24;100966.34;5013503;28;20053;-74
2021/03/19 08:20:19;;;;;;;16.10;10.52;;;;;;;2.42;79.91;100968.00;4993845;28;20140;-73
2021/03/19 08:22:52;;;;;;;;;;;;;;;2.48;78.37;100972.28;4994089;28;20427;-75
2021/03/19 08:25:22;;;;;;;14.00;9.40;;;;;;;2.56;79.54;100975.72;5012025;28;19928;-73
2021/03/19 08:28:13;;;;;;;14.52;9.52;;;;;;;2.60;78.88;100980.03;5016233;28;20049;-74
2021/03/19 08:31:24;;;;;;;13.40;8.70;;;;;;;2.52;77.85;100958.19;5016173;28;20046;-74
2021/03/19 08:33:50;;;;;;;18.25;8.88;;;;;;;2.70;78.27;100979.03;5009090;28;20057;-74
2021/03/19 08:36:30;;;;;;;17.55;8.85;;;;;;;2.71;77.20;100985.13;5025147;28;20057;-73
2021/03/19 08:39:04;;;;;;;14.57;8.73;;;;;;;2.79;77.88;100982.41;5029552;28;20050;-73
2021/03/19 08:41:46;;;;;;;15.25;8.43;;;;;;;2.82;75.89;100980.59;5027358;28;20056;-71
2021/03/19 08:44:16;;;;;;;12.25;7.20;;;;;;;2.82;75.73;100979.69;5026118;28;20110;-73
2021/03/19 08:47:02;;;;;;;11.52;7.90;;;;;;;2.92;76.27;100983.94;5016130;28;20363;-73
2021/03/19 08:49:36;;;;;;;16.15;7.90;;;;;;;3.01;75.86;100984.69;5015790;28;20058;-72
2021/03/19 08:52:21;;;;;;;11.75;7.22;;;;;;;3.14;76.08;100995.94;5015799;28;20050;-74
2021/03/19 08:55:10;;;;;;;10.95;6.50;;;;;;;3.20;74.67;100994.03;5015463;28;20064;-73
2021/03/19 08:57:38;;;;;;;13.10;6.60;;;;;;;3.27;73.07;100981.59;5003363;28;20057;-73
2021/03/19 09:00:21;;;;;;;12.13;6.55;;;;;;;3.24;72.13;100997.50;5006897;28;20124;-72
2021/03/19 09:02:51;;;;;;;11.23;6.15;;;;;;;3.31;73.01;100993.84;5015721;28;20375;-74
2021/03/19 09:05:36;;;;;;;13.25;6.18;;;;;;;3.44;73.23;101005.09;5015319;28;20050;-73
2021/03/19 09:08:12;;;;;;;10.15;5.22;;;;;;;3.56;71.78;101006.63;5015341;28;20108;-73
2021/03/19 09:10:38;;;;;;;9.32;5.60;;;;;;;3.64;70.82;101006.47;5013413;28;20052;-72
2021/03/19 09:13:08;;;;;;;8.05;4.70;;;;;;;3.83;70.51;101011.41;5015303;28;20104;-73
2021/03/19 09:15:52;;;;;;;5.88;4.63;;;;;;;3.89;69.04;101001.63;5015631;28;20061;-72
2021/03/19 09:18:47;;;;;;;7.50;4.90;;;;;;;3.93;68.16;100992.72;5014400;28;20050;-73
2021/03/19 09:21:30;;;;;;;10.93;5.57;;;;;;;4.03;67.64;101008.41;5014558;28;20054;-74
2021/03/19 09:24:16;;;;;;;7.55;5.00;;;;;;;4.04;68.60;101012.78;5015111;28;20050;-73
2021/03/19 09:26:50;;;;;;;10.70;5.50;;;;;;;4.14;69.01;101014.31;5015157;28;20140;-73
2021/03/19 09:29:25;;;;;;;9.32;4.75;;;;;;;4.18;65.86;101023.03;5015087;28;20049;-74
2021/03/19 09:31:53;;;;;;;6.53;5.03;;;;;;;4.35;66.59;101020.94;5015260;28;20169;-72
2021/03/19 09:34:30;;;;;;;7.65;4.70;;;;;;;4.26;65.96;101014.97;5014981;28;20454;-73
2021/03/19 09:37:01;;;;;;;9.57;4.97;;;;;;;4.49;66.14;101041.75;5015152;28;20050;-72
2021/03/19 09:39:52;;;;;;;10.82;4.75;;;;;;;4.56;65.98;101045.16;5014032;28;20136;-72
2021/03/19 09:42:21;;;;;;;8.15;4.47;;;;;;;4.64;65.29;101047.66;5014823;28;20058;-73
2021/03/19 09:45:03;;;;;;;9.68;5.10;;;;;;;4.73;65.75;101043.91;5005241;28;20695;-74
2021/03/19 09:47:36;;;;;;;8.10;4.82;;;;;;;4.68;63.54;101049.31;5010615;28;20133;-73
2021/03/19 09:50:17;;;;;;;6.70;4.35;;;;;;;4.64;63.07;101047.66;5014937;28;20050;-75
2021/03/19 09:53:06;;;;;;;12.75;4.65;;;;;;;4.82;63.14;101045.47;5014998;28;20064;-74
2021/03/19 09:55:38;;;;;;;7.80;4.40;;;;;;;5.02;63.53;101039.75;5014771;28;20049;-73
2021/03/19 09:58:29;;;;;;;7.43;4.75;;;;;;;5.05;62.95;101044.09;5013789;28;20149;-74
2021/03/19 10:01:02;;;;;;;5.80;4.25;;;;;;;5.13;61.82;101052.72;4994676;28;20058;-74
2021/03/19 10:03:40;;;;;;;8.15;4.63;;;;;;;5.16;61.37;101055.28;4995508;28;20343;-73
2021/03/19 10:06:47;;;;;;;12.48;4.93;;;;;;;5.28;61.88;101060.28;4994284;28;20132;-71
2021/03/19 10:09:21;;;;;;;13.43;5.60;;;;;;;5.39;61.92;101056.50;4992904;28;20053;-73
2021/03/19 10:11:54;;;;;;;10.13;5.30;;;;;;;5.39;60.26;101045.91;4995024;28;20082;-72
2021/03/19 10:14:28;;;;;;;9.65;5.10;;;;;;;5.56;59.86;101040.19;4995016;28;20176;-74
2021/03/19 10:17:19;;;;;;;10.13;5.43;;;;;;;5.44;60.54;101052.84;4995441;28;20050;-74
2021/03/19 10:20:12;;;;;;;10.32;5.63;;;;;;;5.39;60.90;101067.94;4994094;28;20058;-74
2021/03/19 10:22:45;;;;;;;13.88;5.47;;;;;;;5.25;61.01;101065.66;4996845;28;20046;-72
2021/03/19 10:25:20;;;;;;;11.55;6.28;;;;;;;5.23;59.26;101066.59;4998972;28;20086;-75
2021/03/19 10:28:07;;;;;;;10.15;4.75;;;;;;;5.19;59.78;101078.16;4998149;28;20046;-74
2021/03/19 10:30:38;;;;;;;;;;;;;;;5.27;59.18;101078.84;4999145;28;20050;-75
2021/03/19 10:33:14;;;;;;;9.23;6.68;;;;;;;5.38;59.02;101087.41;5001083;28;19921;-74
2021/03/19 10:35:48;;;;;;;12.40;4.97;;;;;;;5.72;60.58;101077.72;4998393;28;20135;-73
2021/03/19 10:38:18;;;;;;;9.23;4.82;;;;;;;5.43;57.86;101082.88;4998634;28;20070;-74
2021/03/19 10:40:51;;;;;;;7.63;4.85;;;;;;;5.60;59.71;101092.16;4997601;28;20368;-74
2021/03/19 10:43:56;;;;;;;8.50;5.13;;;;;;;5.49;58.02;101095.06;4998542;28;20062;-75
2021/03/19 10:46:48;;;;;;;6.97;4.88;;;;;;;5.71;59.29;101092.75;4991759;28;20338;-74
2021/03/19 10:49:46;;;;;;;12.85;5.30;;;;;;;6.13;59.17;101081.97;5026262;28;20054;-73
2021/03/19 10:52:21;;;;;;;10.70;4.85;;;;;;;6.67;56.64;101085.75;5036477;28;20431;-73
2021/03/19 10:54:49;;;;;;;7.93;4.28;;;;;;;6.82;55.24;101086.22;5038043;28;20152;-75
2021/03/19 10:57:35;;;;;;;7.63;3.85;;;;;;;6.77;53.52;101102.28;5037854;28;20054;-73
2021/03/19 11:00:37;;;;;;;8.88;3.55;;;;;;;6.65;53.93;101098.22;5024764;28;20094;-74
2021/03/19 11:03:06;;;;;;;5.28;4.07;;;;;;;6.72;54.11;101088.28;5024935;28;20084;-72
2021/03/19 11:05:53;;;;;;;4.55;2.58;;;;;;;7.11;53.55;101085.31;5025475;28;20057;-71
2021/03/19 11:08:19;;;;;;;9.75;3.42;;;;;;;7.39;53.07;101081.75;5019328;28;20046;-73
2021/03/19 11:10:50;;;;;;;11.82;5.00;;;;;;;7.67;53.62;101103.91;5017524;28;20061;-72
2021/03/19 11:13:29;;;;;;;8.85;5.32;;;;;;;7.15;54.34;101068.34;5017759;28;20065;-72
2021/03/19 11:16:03;;;;;;;10.25;4.25;;;;;;;7.35;53.74;101093.41;5017515;28;20057;-74
2021/03/19 11:18:39;;;;;;;8.05;4.22;;;;;;;6.75;54.45;101090.84;5016461;28;20050;-72
2021/03/19 11:21:07;;;;;;;11.90;4.68;;;;;;;7.08;55.63;101096.00;5000561;28;20047;-72
2021/03/19 11:23:40;;;;;;;7.88;3.95;;;;;;;7.50;54.57;101102.66;5017426;28;20053;-75
2021/03/19 11:26:26;;;;;;;8.30;3.78;;;;;;;7.82;52.34;101091.84;5017344;28;20054;-77
2021/03/19 11:29:16;;;;;;;7.30;3.15;;;;;;;7.97;51.68;101098.44;5016380;28;20056;-72
2021/03/19 11:32:08;;;;;;;8.95;4.80;;;;;;;8.08;49.34;101088.31;5016847;28;20559;-74
2021/03/19 11:34:55;;;;;;;7.18;2.25;;;;;;;7.84;49.08;101095.34;5015641;28;20084;-75
2021/03/19 11:37:25;;;;;;;5.65;2.83;;;;;;;7.87;49.61;101100.53;5015812;28;20081;-73
2021/03/19 11:40:16;;;;;;;7.77;3.30;;;;;;;7.85;48.43;101081.13;5016863;28;20092;-75
2021/03/19 11:42:47;;;;;;;6.75;2.35;;;;;;;8.12;49.35;101102.34;5016388;28;20291;-73
2021/03/19 11:45:21;;;;;;;4.85;2.28;;;;;;;8.25;49.12;101090.34;5017005;28;20060;-75
2021/03/19 11:47:51;;;;;;;2.63;2.20;;;;;;;8.47;47.90;101112.63;5016595;28;20054;-73
2021/03/19 11:50:35;;;;;;;5.72;2.63;;;;;;;8.36;47.16;101103.25;5016891;28;20057;-74
2021/03/19 11:53:09;;;;;;;6.95;2.42;;;;;;;8.35;48.11;101080.25;5015636;28;20054;-73
2021/03/19 11:55:41;;;;;;;4.00;2.40;;;;;;;8.59;45.84;101098.91;5016926;28;20141;-75
2021/03/19 11:58:13;;;;;;;3.92;2.20;;;;;;;8.50;47.68;101104.53;5016727;28;20399;-73
2021/03/19 12:00:40;;;;;;;6.00;2.00;;;;;;;7.99;46.37;101105.44;5016421;28;20054;-73
2021/03/19 12:03:12;;;;;;;3.35;1.60;;;;;;;7.63;46.62;101112.88;5016724;28;20081;-74